sensor_id;sensor_type;location;lat;lon;timestamp;pressure;altitude;pressure_sealevel;temperature;humidity
8229;BME280;4155;50.118;8.714;2022-09-09T00:01:49;99598.66;;;17.69;76.04
8229;BME280;4155;50.118;8.714;2022-09-09T00:04:25;99591.56;;;17.68;75.93
8229;BME280;4155;50.118;8.714;2022-09-09T00:07:01;99595.09;;;17.69;76.16
8229;BME280;4155;50.118;8.714;2022-09-09T00:09:36;99597.25;;;17.67;76.25
8229;BME280;4155;50.118;8.714;2022-09-09T00:12:10;99590.69;;;17.62;76.40
8229;BME280;4155;50.118;8.714;2022-09-09T00:14:45;99583.44;;;17.68;76.78
8229;BME280;4155;50.118;8.714;2022-09-09T00:17:22;99588.41;;;17.54;77.85
8229;BME280;4155;50.118;8.714;2022-09-09T00:19:55;99582.63;;;17.46;78.58
8229;BME280;4155;50.118;8.714;2022-09-09T00:22:25;99586.47;;;17.50;78.05
8229;BME280;4155;50.118;8.714;2022-09-09T00:24:55;99591.06;;;17.49;77.64
8229;BME280;4155;50.118;8.714;2022-09-09T00:27:31;99595.16;;;17.30;78.38
8229;BME280;4155;50.118;8.714;2022-09-09T00:30:12;99593.25;;;17.30;78.52
8229;BME280;4155;50.118;8.714;2022-09-09T00:32:41;99587.66;;;17.15;78.85
8229;BME280;4155;50.118;8.714;2022-09-09T00:35:17;99582.22;;;17.15;79.11
8229;BME280;4155;50.118;8.714;2022-09-09T00:37:48;99588.06;;;17.07;79.73
8229;BME280;4155;50.118;8.714;2022-09-09T00:40:22;99587.25;;;17.06;79.43
8229;BME280;4155;50.118;8.714;2022-09-09T00:43:03;99592.34;;;17.03;79.82
8229;BME280;4155;50.118;8.714;2022-09-09T00:45:55;99586.84;;;16.98;80.08
8229;BME280;4155;50.118;8.714;2022-09-09T00:48:31;99596.22;;;16.90;80.08
8229;BME280;4155;50.118;8.714;2022-09-09T00:51:08;99592.78;;;16.95;79.92
8229;BME280;4155;50.118;8.714;2022-09-09T00:53:51;99595.16;;;16.91;80.53
8229;BME280;4155;50.118;8.714;2022-09-09T00:56:25;99591.25;;;16.82;80.94
8229;BME280;4155;50.118;8.714;2022-09-09T00:59:00;99591.09;;;16.72;81.38
8229;BME280;4155;50.118;8.714;2022-09-09T01:01:33;99593.84;;;16.60;81.63
8229;BME280;4155;50.118;8.714;2022-09-09T01:04:06;99596.78;;;16.59;81.99
8229;BME280;4155;50.118;8.714;2022-09-09T01:06:38;99594.66;;;16.61;81.77
8229;BME280;4155;50.118;8.714;2022-09-09T01:09:11;99593.34;;;16.63;82.13
8229;BME280;4155;50.118;8.714;2022-09-09T01:11:49;99594.06;;;16.59;82.42
8229;BME280;4155;50.118;8.714;2022-09-09T01:14:30;99589.97;;;16.56;82.94
8229;BME280;4155;50.118;8.714;2022-09-09T01:17:03;99593.34;;;16.63;82.83
8229;BME280;4155;50.118;8.714;2022-09-09T01:19:43;99596.47;;;16.55;82.73
8229;BME280;4155;50.118;8.714;2022-09-09T01:22:19;99592.69;;;16.56;82.82
8229;BME280;4155;50.118;8.714;2022-09-09T01:25:06;99597.28;;;16.56;82.55
8229;BME280;4155;50.118;8.714;2022-09-09T01:27:40;99591.53;;;16.52;82.50
8229;BME280;4155;50.118;8.714;2022-09-09T01:30:10;99594.50;;;16.51;82.96
8229;BME280;4155;50.118;8.714;2022-09-09T01:32:42;99584.63;;;16.44;83.11
8229;BME280;4155;50.118;8.714;2022-09-09T01:35:12;99596.03;;;16.46;83.42
8229;BME280;4155;50.118;8.714;2022-09-09T01:37:42;99590.44;;;16.36;83.68
8229;BME280;4155;50.118;8.714;2022-09-09T01:40:10;99586.34;;;16.34;83.77
8229;BME280;4155;50.118;8.714;2022-09-09T01:42:39;99585.22;;;16.30;84.21
8229;BME280;4155;50.118;8.714;2022-09-09T01:45:08;99587.94;;;16.30;84.42
8229;BME280;4155;50.118;8.714;2022-09-09T01:47:36;99582.97;;;16.27;84.55
8229;BME280;4155;50.118;8.714;2022-09-09T01:50:04;99587.56;;;16.26;84.54
8229;BME280;4155;50.118;8.714;2022-09-09T01:52:34;99590.44;;;16.19;84.98
8229;BME280;4155;50.118;8.714;2022-09-09T01:55:04;99581.66;;;16.12;85.77
8229;BME280;4155;50.118;8.714;2022-09-09T01:57:41;99578.72;;;16.14;85.62
8229;BME280;4155;50.118;8.714;2022-09-09T02:00:14;99576.00;;;16.14;85.48
8229;BME280;4155;50.118;8.714;2022-09-09T02:02:49;99581.41;;;16.14;85.68
8229;BME280;4155;50.118;8.714;2022-09-09T02:05:29;99579.94;;;16.06;86.13
8229;BME280;4155;50.118;8.714;2022-09-09T02:08:03;99585.34;;;16.06;86.43
8229;BME280;4155;50.118;8.714;2022-09-09T02:10:37;99583.13;;;16.03;86.58
8229;BME280;4155;50.118;8.714;2022-09-09T02:13:12;99586.06;;;16.02;86.77
8229;BME280;4155;50.118;8.714;2022-09-09T02:15:44;99583.22;;;16.08;86.64
8229;BME280;4155;50.118;8.714;2022-09-09T02:18:18;99589.13;;;16.22;86.10
8229;BME280;4155;50.118;8.714;2022-09-09T02:20:50;99591.44;;;16.30;85.90
8229;BME280;4155;50.118;8.714;2022-09-09T02:23:19;99590.06;;;16.28;86.35
8229;BME280;4155;50.118;8.714;2022-09-09T02:25:48;99597.75;;;16.36;86.09
8229;BME280;4155;50.118;8.714;2022-09-09T02:28:20;99607.75;;;16.35;85.92
8229;BME280;4155;50.118;8.714;2022-09-09T02:30:51;99594.00;;;16.54;85.48
8229;BME280;4155;50.118;8.714;2022-09-09T02:33:24;99609.41;;;16.53;84.81
8229;BME280;4155;50.118;8.714;2022-09-09T02:35:55;99607.59;;;16.59;84.82
8229;BME280;4155;50.118;8.714;2022-09-09T02:38:33;99605.50;;;16.77;83.87
8229;BME280;4155;50.118;8.714;2022-09-09T02:41:03;99607.97;;;16.79;83.46
8229;BME280;4155;50.118;8.714;2022-09-09T02:43:34;99608.56;;;16.81;83.51
8229;BME280;4155;50.118;8.714;2022-09-09T02:46:08;99611.25;;;16.81;83.80
8229;BME280;4155;50.118;8.714;2022-09-09T02:48:46;99610.25;;;16.87;83.05
8229;BME280;4155;50.118;8.714;2022-09-09T02:51:23;99603.88;;;16.93;83.01
8229;BME280;4155;50.118;8.714;2022-09-09T02:53:57;99600.47;;;17.03;82.25
8229;BME280;4155;50.118;8.714;2022-09-09T02:56:30;99605.97;;;17.08;82.17
8229;BME280;4155;50.118;8.714;2022-09-09T02:59:04;99601.72;;;16.95;82.67
8229;BME280;4155;50.118;8.714;2022-09-09T03:01:32;99607.94;;;16.96;82.89
8229;BME280;4155;50.118;8.714;2022-09-09T03:04:02;99605.09;;;16.86;83.20
8229;BME280;4155;50.118;8.714;2022-09-09T03:06:31;99604.53;;;16.84;83.53
8229;BME280;4155;50.118;8.714;2022-09-09T03:08:59;99602.63;;;16.84;83.45
8229;BME280;4155;50.118;8.714;2022-09-09T03:11:28;99602.22;;;16.92;83.27
8229;BME280;4155;50.118;8.714;2022-09-09T03:13:56;99603.44;;;17.01;82.88
8229;BME280;4155;50.118;8.714;2022-09-09T03:16:25;99593.75;;;16.89;82.81
8229;BME280;4155;50.118;8.714;2022-09-09T03:18:53;99602.47;;;16.91;83.23
8229;BME280;4155;50.118;8.714;2022-09-09T03:21:20;99596.41;;;16.84;83.46
8229;BME280;4155;50.118;8.714;2022-09-09T03:23:48;99585.81;;;16.82;83.68
8229;BME280;4155;50.118;8.714;2022-09-09T03:26:16;99579.50;;;16.76;83.80
8229;BME280;4155;50.118;8.714;2022-09-09T03:28:43;99586.34;;;16.67;83.93
8229;BME280;4155;50.118;8.714;2022-09-09T03:31:11;99581.84;;;16.56;84.55
8229;BME280;4155;50.118;8.714;2022-09-09T03:33:40;99582.66;;;16.57;84.85
8229;BME280;4155;50.118;8.714;2022-09-09T03:36:09;99583.25;;;16.59;84.46
8229;BME280;4155;50.118;8.714;2022-09-09T03:38:36;99582.59;;;16.52;84.96
8229;BME280;4155;50.118;8.714;2022-09-09T03:41:04;99586.19;;;16.57;84.86
8229;BME280;4155;50.118;8.714;2022-09-09T03:43:34;99599.25;;;16.60;84.35
8229;BME280;4155;50.118;8.714;2022-09-09T03:46:02;99597.53;;;16.54;84.87
8229;BME280;4155;50.118;8.714;2022-09-09T03:48:30;99588.25;;;16.67;84.68
8229;BME280;4155;50.118;8.714;2022-09-09T03:50:59;99591.72;;;16.62;84.41
8229;BME280;4155;50.118;8.714;2022-09-09T03:53:29;99594.72;;;16.66;84.39
8229;BME280;4155;50.118;8.714;2022-09-09T03:55:57;99582.66;;;16.57;84.57
8229;BME280;4155;50.118;8.714;2022-09-09T03:58:26;99585.72;;;16.60;84.85
8229;BME280;4155;50.118;8.714;2022-09-09T04:00:55;99582.91;;;16.55;84.94
8229;BME280;4155;50.118;8.714;2022-09-09T04:03:24;99576.28;;;16.63;84.54
8229;BME280;4155;50.118;8.714;2022-09-09T04:05:55;99580.78;;;16.57;84.85
8229;BME280;4155;50.118;8.714;2022-09-09T04:08:24;99579.72;;;16.58;84.83
8229;BME280;4155;50.118;8.714;2022-09-09T04:10:53;99588.84;;;16.52;84.71
8229;BME280;4155;50.118;8.714;2022-09-09T04:13:25;99574.13;;;16.48;84.78
8229;BME280;4155;50.118;8.714;2022-09-09T04:15:54;99587.09;;;16.29;85.94
8229;BME280;4155;50.118;8.714;2022-09-09T04:18:22;99576.19;;;16.24;86.12
8229;BME280;4155;50.118;8.714;2022-09-09T04:20:52;99583.47;;;16.24;86.55
8229;BME280;4155;50.118;8.714;2022-09-09T04:23:19;99577.06;;;16.13;87.09
8229;BME280;4155;50.118;8.714;2022-09-09T04:25:50;99574.75;;;16.05;87.52
8229;BME280;4155;50.118;8.714;2022-09-09T04:28:19;99582.53;;;16.01;88.11
8229;BME280;4155;50.118;8.714;2022-09-09T04:30:47;99585.75;;;16.15;87.57
8229;BME280;4155;50.118;8.714;2022-09-09T04:33:16;99586.09;;;16.18;87.42
8229;BME280;4155;50.118;8.714;2022-09-09T04:35:45;99578.63;;;16.09;87.77
8229;BME280;4155;50.118;8.714;2022-09-09T04:38:13;99575.75;;;16.15;87.68
8229;BME280;4155;50.118;8.714;2022-09-09T04:40:42;99578.13;;;16.12;87.56
8229;BME280;4155;50.118;8.714;2022-09-09T04:43:11;99585.19;;;16.13;87.82
8229;BME280;4155;50.118;8.714;2022-09-09T04:45:40;99571.41;;;16.14;87.44
8229;BME280;4155;50.118;8.714;2022-09-09T04:48:08;99567.16;;;16.18;87.55
8229;BME280;4155;50.118;8.714;2022-09-09T04:50:36;99565.09;;;16.26;87.19
8229;BME280;4155;50.118;8.714;2022-09-09T04:53:04;99570.19;;;16.22;86.69
8229;BME280;4155;50.118;8.714;2022-09-09T04:55:32;99576.03;;;16.31;86.36
8229;BME280;4155;50.118;8.714;2022-09-09T04:58:03;99583.09;;;16.32;86.12
8229;BME280;4155;50.118;8.714;2022-09-09T05:00:34;99569.88;;;16.35;85.68
8229;BME280;4155;50.118;8.714;2022-09-09T05:03:03;99577.34;;;16.45;85.07
8229;BME280;4155;50.118;8.714;2022-09-09T05:05:32;99577.09;;;16.46;85.17
8229;BME280;4155;50.118;8.714;2022-09-09T05:08:02;99587.25;;;16.56;84.44
8229;BME280;4155;50.118;8.714;2022-09-09T05:10:30;99585.13;;;16.58;84.27
8229;BME280;4155;50.118;8.714;2022-09-09T05:12:58;99590.13;;;16.66;84.41
8229;BME280;4155;50.118;8.714;2022-09-09T05:15:25;99594.47;;;16.67;83.99
8229;BME280;4155;50.118;8.714;2022-09-09T05:17:57;99606.66;;;16.82;83.45
8229;BME280;4155;50.118;8.714;2022-09-09T05:20:26;99611.06;;;16.88;83.09
8229;BME280;4155;50.118;8.714;2022-09-09T05:22:54;99616.09;;;16.96;82.77
8229;BME280;4155;50.118;8.714;2022-09-09T05:25:23;99611.31;;;17.03;82.24
8229;BME280;4155;50.118;8.714;2022-09-09T05:27:52;99620.25;;;17.03;82.48
8229;BME280;4155;50.118;8.714;2022-09-09T05:30:20;99622.06;;;17.15;82.27
8229;BME280;4155;50.118;8.714;2022-09-09T05:32:51;99625.19;;;17.06;82.66
8229;BME280;4155;50.118;8.714;2022-09-09T05:35:19;99631.56;;;17.17;81.73
8229;BME280;4155;50.118;8.714;2022-09-09T05:37:47;99629.03;;;17.11;81.68
8229;BME280;4155;50.118;8.714;2022-09-09T05:40:15;99624.66;;;17.10;81.84
8229;BME280;4155;50.118;8.714;2022-09-09T05:42:42;99635.19;;;17.06;82.23
8229;BME280;4155;50.118;8.714;2022-09-09T05:45:10;99629.63;;;17.13;82.38
8229;BME280;4155;50.118;8.714;2022-09-09T05:47:38;99629.09;;;17.16;82.22
8229;BME280;4155;50.118;8.714;2022-09-09T05:50:06;99640.81;;;17.21;82.10
8229;BME280;4155;50.118;8.714;2022-09-09T05:52:35;99643.69;;;17.31;81.55
8229;BME280;4155;50.118;8.714;2022-09-09T05:55:03;99643.78;;;17.20;81.62
8229;BME280;4155;50.118;8.714;2022-09-09T05:57:31;99647.31;;;17.20;81.63
8229;BME280;4155;50.118;8.714;2022-09-09T05:59:59;99648.13;;;17.21;81.85
8229;BME280;4155;50.118;8.714;2022-09-09T06:02:27;99644.69;;;17.25;81.72
8229;BME280;4155;50.118;8.714;2022-09-09T06:04:55;99649.56;;;17.23;81.52
8229;BME280;4155;50.118;8.714;2022-09-09T06:07:26;99651.75;;;17.26;81.40
8229;BME280;4155;50.118;8.714;2022-09-09T06:09:55;99660.13;;;17.25;81.42
8229;BME280;4155;50.118;8.714;2022-09-09T06:12:22;99647.00;;;17.33;81.10
8229;BME280;4155;50.118;8.714;2022-09-09T06:14:50;99655.34;;;17.32;81.01
8229;BME280;4155;50.118;8.714;2022-09-09T06:17:18;99657.94;;;17.44;80.92
8229;BME280;4155;50.118;8.714;2022-09-09T06:19:45;99655.63;;;17.69;80.27
8229;BME280;4155;50.118;8.714;2022-09-09T06:22:13;99656.16;;;17.93;78.38
8229;BME280;4155;50.118;8.714;2022-09-09T06:24:41;99651.00;;;18.40;76.06
8229;BME280;4155;50.118;8.714;2022-09-09T06:27:10;99648.72;;;18.91;74.11
8229;BME280;4155;50.118;8.714;2022-09-09T06:29:40;99650.56;;;20.43;69.73
8229;BME280;4155;50.118;8.714;2022-09-09T06:32:07;99656.28;;;22.03;63.58
8229;BME280;4155;50.118;8.714;2022-09-09T06:34:35;99650.88;;;21.92;62.13
8229;BME280;4155;50.118;8.714;2022-09-09T06:37:03;99646.13;;;21.49;63.19
8229;BME280;4155;50.118;8.714;2022-09-09T06:39:32;99653.28;;;21.04;64.66
8229;BME280;4155;50.118;8.714;2022-09-09T06:42:00;99645.41;;;20.67;65.99
8229;BME280;4155;50.118;8.714;2022-09-09T06:44:29;99636.66;;;20.49;67.02
8229;BME280;4155;50.118;8.714;2022-09-09T06:47:01;99642.31;;;20.22;68.13
8229;BME280;4155;50.118;8.714;2022-09-09T06:49:28;99643.69;;;20.25;68.28
8229;BME280;4155;50.118;8.714;2022-09-09T06:51:56;99651.03;;;20.25;67.47
8229;BME280;4155;50.118;8.714;2022-09-09T06:54:24;99648.09;;;20.51;67.19
8229;BME280;4155;50.118;8.714;2022-09-09T06:56:52;99645.34;;;20.31;67.92
8229;BME280;4155;50.118;8.714;2022-09-09T06:59:19;99651.31;;;20.28;67.82
8229;BME280;4155;50.118;8.714;2022-09-09T07:01:49;99649.75;;;20.47;67.44
8229;BME280;4155;50.118;8.714;2022-09-09T07:04:21;99645.56;;;20.19;68.36
8229;BME280;4155;50.118;8.714;2022-09-09T07:06:49;99639.59;;;20.22;67.58
8229;BME280;4155;50.118;8.714;2022-09-09T07:09:18;99641.56;;;20.88;65.22
8229;BME280;4155;50.118;8.714;2022-09-09T07:11:48;99645.59;;;21.42;63.89
8229;BME280;4155;50.118;8.714;2022-09-09T07:14:16;99640.97;;;21.22;64.37
8229;BME280;4155;50.118;8.714;2022-09-09T07:16:45;99639.38;;;20.90;65.22
8229;BME280;4155;50.118;8.714;2022-09-09T07:19:14;99641.56;;;20.83;65.37
8229;BME280;4155;50.118;8.714;2022-09-09T07:21:43;99636.94;;;20.53;66.91
8229;BME280;4155;50.118;8.714;2022-09-09T07:24:10;99647.00;;;20.47;66.35
8229;BME280;4155;50.118;8.714;2022-09-09T07:26:40;99650.16;;;20.04;68.40
8229;BME280;4155;50.118;8.714;2022-09-09T07:29:08;99648.41;;;19.72;69.36
8229;BME280;4155;50.118;8.714;2022-09-09T07:31:38;99647.97;;;19.43;70.22
8229;BME280;4155;50.118;8.714;2022-09-09T07:34:06;99644.28;;;19.17;71.17
8229;BME280;4155;50.118;8.714;2022-09-09T07:36:37;99647.28;;;19.16;70.92
8229;BME280;4155;50.118;8.714;2022-09-09T07:39:08;99647.22;;;19.05;71.76
8229;BME280;4155;50.118;8.714;2022-09-09T07:41:37;99647.50;;;19.09;71.64
8229;BME280;4155;50.118;8.714;2022-09-09T07:44:07;99649.84;;;18.95;72.56
8229;BME280;4155;50.118;8.714;2022-09-09T07:46:35;99647.03;;;19.22;72.15
8229;BME280;4155;50.118;8.714;2022-09-09T07:49:05;99652.91;;;19.46;70.86
8229;BME280;4155;50.118;8.714;2022-09-09T07:51:37;99657.81;;;19.54;71.29
8229;BME280;4155;50.118;8.714;2022-09-09T07:54:07;99651.69;;;19.74;69.33
8229;BME280;4155;50.118;8.714;2022-09-09T07:56:36;99666.38;;;19.73;69.76
8229;BME280;4155;50.118;8.714;2022-09-09T07:59:07;99666.41;;;19.78;69.64
8229;BME280;4155;50.118;8.714;2022-09-09T08:01:37;99667.13;;;19.58;69.88
8229;BME280;4155;50.118;8.714;2022-09-09T08:04:08;99680.59;;;19.38;70.99
8229;BME280;4155;50.118;8.714;2022-09-09T08:06:38;99680.59;;;19.38;71.72
8229;BME280;4155;50.118;8.714;2022-09-09T08:09:08;99682.28;;;19.07;72.39
8229;BME280;4155;50.118;8.714;2022-09-09T08:11:35;99686.56;;;18.98;73.18
8229;BME280;4155;50.118;8.714;2022-09-09T08:14:05;99677.56;;;18.97;73.50
8229;BME280;4155;50.118;8.714;2022-09-09T08:16:35;99684.19;;;19.12;72.39
8229;BME280;4155;50.118;8.714;2022-09-09T08:19:04;99683.63;;;19.47;71.22
8229;BME280;4155;50.118;8.714;2022-09-09T08:21:35;99681.34;;;19.76;70.56
8229;BME280;4155;50.118;8.714;2022-09-09T08:24:06;99691.00;;;20.09;68.71
8229;BME280;4155;50.118;8.714;2022-09-09T08:26:36;99692.78;;;20.45;67.33
8229;BME280;4155;50.118;8.714;2022-09-09T08:29:06;99687.06;;;20.62;67.14
8229;BME280;4155;50.118;8.714;2022-09-09T08:31:35;99694.47;;;21.07;65.66
8229;BME280;4155;50.118;8.714;2022-09-09T08:34:04;99699.38;;;21.31;64.99
8229;BME280;4155;50.118;8.714;2022-09-09T08:36:34;99697.44;;;21.21;65.01
8229;BME280;4155;50.118;8.714;2022-09-09T08:39:04;99697.75;;;21.30;63.77
8229;BME280;4155;50.118;8.714;2022-09-09T08:41:56;99697.97;;;21.54;62.64
8229;BME280;4155;50.118;8.714;2022-09-09T08:44:35;99689.44;;;21.76;63.41
8229;BME280;4155;50.118;8.714;2022-09-09T08:47:20;99697.66;;;21.71;62.81
8229;BME280;4155;50.118;8.714;2022-09-09T08:50:07;99687.03;;;21.59;63.18
8229;BME280;4155;50.118;8.714;2022-09-09T08:52:41;99695.63;;;22.02;61.79
8229;BME280;4155;50.118;8.714;2022-09-09T08:55:25;99689.94;;;21.93;61.34
8229;BME280;4155;50.118;8.714;2022-09-09T08:57:57;99689.66;;;21.89;62.00
8229;BME280;4155;50.118;8.714;2022-09-09T09:00:34;99685.91;;;21.70;62.52
8229;BME280;4155;50.118;8.714;2022-09-09T09:03:06;99676.41;;;21.47;62.77
8229;BME280;4155;50.118;8.714;2022-09-09T09:05:42;99666.59;;;21.51;63.69
8229;BME280;4155;50.118;8.714;2022-09-09T09:08:18;99659.00;;;21.18;63.84
8229;BME280;4155;50.118;8.714;2022-09-09T09:10:54;99658.44;;;21.16;64.40
8229;BME280;4155;50.118;8.714;2022-09-09T09:13:30;99651.06;;;21.36;63.32
8229;BME280;4155;50.118;8.714;2022-09-09T09:16:15;99660.31;;;21.46;63.42
8229;BME280;4155;50.118;8.714;2022-09-09T09:18:45;99666.81;;;21.65;62.98
8229;BME280;4155;50.118;8.714;2022-09-09T09:21:16;99663.03;;;21.61;62.77
8229;BME280;4155;50.118;8.714;2022-09-09T09:23:53;99665.72;;;21.71;62.39
8229;BME280;4155;50.118;8.714;2022-09-09T09:26:23;99666.31;;;22.22;60.88
8229;BME280;4155;50.118;8.714;2022-09-09T09:28:55;99667.66;;;22.25;60.02
8229;BME280;4155;50.118;8.714;2022-09-09T09:31:23;99670.50;;;22.00;61.79
8229;BME280;4155;50.118;8.714;2022-09-09T09:33:54;99666.44;;;21.92;63.48
8229;BME280;4155;50.118;8.714;2022-09-09T09:36:34;99668.47;;;21.56;65.59
8229;BME280;4155;50.118;8.714;2022-09-09T09:39:03;99665.19;;;21.64;65.66
8229;BME280;4155;50.118;8.714;2022-09-09T09:41:52;99667.97;;;21.49;65.67
8229;BME280;4155;50.118;8.714;2022-09-09T09:44:26;99667.72;;;21.35;66.29
8229;BME280;4155;50.118;8.714;2022-09-09T09:47:05;99661.22;;;20.65;66.37
8229;BME280;4155;50.118;8.714;2022-09-09T09:49:34;99662.53;;;20.62;67.29
8229;BME280;4155;50.118;8.714;2022-09-09T09:52:02;99663.09;;;20.44;68.72
8229;BME280;4155;50.118;8.714;2022-09-09T09:54:33;99667.72;;;20.48;68.54
8229;BME280;4155;50.118;8.714;2022-09-09T09:57:09;99669.63;;;20.43;69.83
8229;BME280;4155;50.118;8.714;2022-09-09T09:59:39;99671.47;;;20.27;70.83
8229;BME280;4155;50.118;8.714;2022-09-09T10:02:19;99662.72;;;20.20;72.34
8229;BME280;4155;50.118;8.714;2022-09-09T10:04:47;99661.06;;;20.04;73.19
8229;BME280;4155;50.118;8.714;2022-09-09T10:07:18;99660.56;;;20.27;71.98
8229;BME280;4155;50.118;8.714;2022-09-09T10:09:50;99649.91;;;20.15;71.39
8229;BME280;4155;50.118;8.714;2022-09-09T10:12:28;99652.66;;;20.20;70.85
8229;BME280;4155;50.118;8.714;2022-09-09T10:15:02;99660.28;;;20.23;70.88
8229;BME280;4155;50.118;8.714;2022-09-09T10:17:38;99659.50;;;20.38;70.88
8229;BME280;4155;50.118;8.714;2022-09-09T10:20:19;99649.47;;;20.49;70.53
8229;BME280;4155;50.118;8.714;2022-09-09T10:22:55;99643.50;;;20.77;69.99
8229;BME280;4155;50.118;8.714;2022-09-09T10:25:43;99648.44;;;21.91;67.26
8229;BME280;4155;50.118;8.714;2022-09-09T10:28:41;99634.31;;;22.67;64.25
8229;BME280;4155;50.118;8.714;2022-09-09T10:31:20;99633.97;;;23.08;63.04
8229;BME280;4155;50.118;8.714;2022-09-09T10:33:59;99640.47;;;22.88;63.78
8229;BME280;4155;50.118;8.714;2022-09-09T10:36:30;99634.50;;;23.10;63.13
8229;BME280;4155;50.118;8.714;2022-09-09T10:39:00;99642.31;;;23.46;61.75
8229;BME280;4155;50.118;8.714;2022-09-09T10:41:42;99635.75;;;23.47;62.24
8229;BME280;4155;50.118;8.714;2022-09-09T10:44:19;99637.19;;;23.39;60.97
8229;BME280;4155;50.118;8.714;2022-09-09T10:47:24;99632.47;;;23.21;61.92
8229;BME280;4155;50.118;8.714;2022-09-09T10:50:08;99626.22;;;23.15;61.21
8229;BME280;4155;50.118;8.714;2022-09-09T10:52:48;99616.94;;;22.87;63.09
8229;BME280;4155;50.118;8.714;2022-09-09T10:55:24;99614.16;;;22.92;62.15
8229;BME280;4155;50.118;8.714;2022-09-09T10:57:57;99617.56;;;22.40;63.29
8229;BME280;4155;50.118;8.714;2022-09-09T11:00:34;99617.88;;;21.84;65.49
8229;BME280;4155;50.118;8.714;2022-09-09T11:03:06;99616.19;;;21.28;67.74
8229;BME280;4155;50.118;8.714;2022-09-09T11:05:42;99631.19;;;21.11;69.33
8229;BME280;4155;50.118;8.714;2022-09-09T11:08:15;99635.81;;;21.05;70.40
8229;BME280;4155;50.118;8.714;2022-09-09T11:10:46;99626.53;;;21.11;72.79
8229;BME280;4155;50.118;8.714;2022-09-09T11:13:22;99626.81;;;21.30;72.51
8229;BME280;4155;50.118;8.714;2022-09-09T11:15:57;99631.00;;;21.82;70.30
8229;BME280;4155;50.118;8.714;2022-09-09T11:18:29;99633.84;;;22.16;68.16
8229;BME280;4155;50.118;8.714;2022-09-09T11:21:02;99630.59;;;22.09;67.94
8229;BME280;4155;50.118;8.714;2022-09-09T11:23:37;99634.25;;;21.84;69.13
8229;BME280;4155;50.118;8.714;2022-09-09T11:26:12;99628.03;;;21.73;68.08
8229;BME280;4155;50.118;8.714;2022-09-09T11:28:53;99629.34;;;21.86;67.71
8229;BME280;4155;50.118;8.714;2022-09-09T11:31:43;99630.47;;;22.29;66.98
8229;BME280;4155;50.118;8.714;2022-09-09T11:34:36;99625.25;;;22.72;65.06
8229;BME280;4155;50.118;8.714;2022-09-09T11:37:20;99639.41;;;22.79;64.44
8229;BME280;4155;50.118;8.714;2022-09-09T11:40:06;99626.13;;;22.96;63.78
8229;BME280;4155;50.118;8.714;2022-09-09T11:42:36;99624.56;;;22.90;62.22
8229;BME280;4155;50.118;8.714;2022-09-09T11:45:19;99624.13;;;23.07;61.94
8229;BME280;4155;50.118;8.714;2022-09-09T11:47:52;99622.56;;;23.25;59.08
8229;BME280;4155;50.118;8.714;2022-09-09T11:50:36;99626.72;;;23.70;58.21
8229;BME280;4155;50.118;8.714;2022-09-09T11:56:02;99604.34;;;23.39;55.36
8229;BME280;4155;50.118;8.714;2022-09-09T11:58:36;99603.75;;;22.94;55.79
8229;BME280;4155;50.118;8.714;2022-09-09T12:01:25;99595.59;;;22.55;57.41
8229;BME280;4155;50.118;8.714;2022-09-09T12:04:05;99599.69;;;22.18;59.44
8229;BME280;4155;50.118;8.714;2022-09-09T12:06:44;99610.41;;;22.05;59.24
8229;BME280;4155;50.118;8.714;2022-09-09T12:09:20;99617.66;;;21.75;60.09
8229;BME280;4155;50.118;8.714;2022-09-09T12:11:50;99618.53;;;21.55;59.97
8229;BME280;4155;50.118;8.714;2022-09-09T12:14:23;99611.63;;;21.78;60.98
8229;BME280;4155;50.118;8.714;2022-09-09T12:17:10;99617.78;;;21.99;60.30
8229;BME280;4155;50.118;8.714;2022-09-09T12:19:37;99611.41;;;22.24;58.38
8229;BME280;4155;50.118;8.714;2022-09-09T12:22:13;99608.13;;;22.22;57.40
8229;BME280;4155;50.118;8.714;2022-09-09T12:24:49;99603.59;;;22.07;57.33
8229;BME280;4155;50.118;8.714;2022-09-09T12:27:23;99603.31;;;22.04;57.22
8229;BME280;4155;50.118;8.714;2022-09-09T12:29:57;99599.22;;;22.06;57.65
8229;BME280;4155;50.118;8.714;2022-09-09T12:32:28;99590.44;;;22.09;57.08
8229;BME280;4155;50.118;8.714;2022-09-09T12:34:59;99590.19;;;22.06;57.49
8229;BME280;4155;50.118;8.714;2022-09-09T12:37:34;99581.75;;;21.97;58.00
8229;BME280;4155;50.118;8.714;2022-09-09T12:40:03;99586.47;;;21.86;58.98
8229;BME280;4155;50.118;8.714;2022-09-09T12:42:32;99589.94;;;21.97;58.67
8229;BME280;4155;50.118;8.714;2022-09-09T12:45:16;99590.81;;;21.87;59.32
8229;BME280;4155;50.118;8.714;2022-09-09T12:47:48;99584.94;;;21.70;59.93
8229;BME280;4155;50.118;8.714;2022-09-09T12:50:19;99602.31;;;21.79;60.24
8229;BME280;4155;50.118;8.714;2022-09-09T12:52:51;99631.94;;;21.52;60.00
8229;BME280;4155;50.118;8.714;2022-09-09T12:55:21;99672.75;;;19.99;72.69
8229;BME280;4155;50.118;8.714;2022-09-09T12:57:52;99624.28;;;19.39;77.75
8229;BME280;4155;50.118;8.714;2022-09-09T13:00:22;99617.34;;;18.73;79.98
8229;BME280;4155;50.118;8.714;2022-09-09T13:02:51;99602.97;;;18.46;82.17
8229;BME280;4155;50.118;8.714;2022-09-09T13:05:22;99622.22;;;18.44;82.68
8229;BME280;4155;50.118;8.714;2022-09-09T13:08:00;99624.56;;;18.63;82.22
8229;BME280;4155;50.118;8.714;2022-09-09T13:10:31;99630.09;;;19.10;80.33
8229;BME280;4155;50.118;8.714;2022-09-09T13:13:20;99635.41;;;19.32;80.78
8229;BME280;4155;50.118;8.714;2022-09-09T13:15:50;99634.50;;;19.58;78.69
8229;BME280;4155;50.118;8.714;2022-09-09T13:18:22;99622.03;;;19.78;77.57
8229;BME280;4155;50.118;8.714;2022-09-09T13:20:51;99628.94;;;20.06;76.07
8229;BME280;4155;50.118;8.714;2022-09-09T13:23:21;99640.94;;;20.20;77.25
8229;BME280;4155;50.118;8.714;2022-09-09T13:25:56;99646.41;;;20.30;76.14
8229;BME280;4155;50.118;8.714;2022-09-09T13:28:26;99645.25;;;20.06;76.49
8229;BME280;4155;50.118;8.714;2022-09-09T13:31:00;99644.66;;;19.83;77.48
8229;BME280;4155;50.118;8.714;2022-09-09T13:33:32;99639.72;;;19.70;77.50
8229;BME280;4155;50.118;8.714;2022-09-09T13:36:03;99640.53;;;19.76;76.01
8229;BME280;4155;50.118;8.714;2022-09-09T13:38:33;99628.63;;;19.97;75.02
8229;BME280;4155;50.118;8.714;2022-09-09T13:41:04;99636.88;;;20.28;73.74
8229;BME280;4155;50.118;8.714;2022-09-09T13:43:36;99628.66;;;20.07;74.64
8229;BME280;4155;50.118;8.714;2022-09-09T13:46:23;99626.03;;;20.43;72.59
8229;BME280;4155;50.118;8.714;2022-09-09T13:48:56;99623.59;;;20.67;70.51
8229;BME280;4155;50.118;8.714;2022-09-09T13:51:32;99626.03;;;20.89;70.01
8229;BME280;4155;50.118;8.714;2022-09-09T13:54:02;99610.47;;;20.94;68.81